Flight Track Log - Related Links

Times and Time Zones

All times are in EDT time to prevent confusion due to time zone crossing. See the N842CP flight status page for this flight to view local times or setup timezone preferences in your user account.

Time Position Orientation Groundspeed Altitude Reporting Facility
EDT Latitude Longitude Course Direction KTS MPH feet Rate Location/Type
Sun 10:11:01 PM 36.6000 -121.8833 360° North 115 132 1,200  Level Northern Cal TRACON
Sun 10:12:01 PM 36.6333 -121.8833 360° North 129 148 2,000 1,000 Climbing Northern Cal TRACON
Sun 10:13:01 PM 36.6667 -121.8833 360° North 114 131 3,200 1,050 Climbing Northern Cal TRACON
Sun 10:14:01 PM 36.7000 -121.8833 360° North 111 128 4,100 750 Climbing Northern Cal TRACON
Sun 10:15:01 PM 36.7167 -121.8500 58° Northeast 137 158 4,700 600 Climbing Northern Cal TRACON
Sun 10:16:01 PM 36.7500 -121.8167 39° Northeast 153 176 5,300 600 Climbing Northern Cal TRACON
Sun 10:17:01 PM 36.7833 -121.7833 39° Northeast 155 178 5,900 600 Climbing Northern Cal TRACON
Sun 10:18:01 PM 36.8000 -121.7333 67° East 156 180 6,500 574 Climbing Northern Cal TRACON
Sun 10:18:56 PM 36.8333 -121.7000 39° Northeast 159 183 7,000 261 Climbing Northern Cal TRACON
Sun 10:19:56 PM 36.8667 -121.6667 39° Northeast 182 209 7,000  Level Northern Cal TRACON
Sun 10:20:56 PM 36.9000 -121.6167 50° Northeast 176 203 7,000  Level Northern Cal TRACON
Sun 10:21:26 PM 36.9100 -121.6008 52° Northeast 179 206 7,000  Level Oakland Center
Sun 10:22:27 PM 36.9497 -121.5475 47° Northeast 177 204 7,000  Level Oakland Center
Sun 10:23:28 PM 36.9833 -121.5031 47° Northeast 176 203 7,000  Level Oakland Center
Sun 10:24:29 PM 37.0164 -121.4583 47° Northeast 176 203 7,000 49 Level Oakland Center
Sun 10:25:31 PM 37.0472 -121.4161 48° Northeast 170 196 7,100 49 Climbing Oakland Center
Sun 10:26:32 PM 37.0800 -121.3719 47° Northeast 171 197 7,100  Level Oakland Center
Sun 10:27:33 PM 37.1139 -121.3294 45° Northeast 172 198 7,100  Level Oakland Center
Sun 10:28:35 PM 37.1464 -121.2869 46° Northeast 170 196 7,100  Level Oakland Center
Sun 10:29:36 PM 37.1847 -121.2519 36° Northeast 171 197 7,100  Level Oakland Center
Sun 10:30:37 PM 37.2369 -121.2192 27° Northeast 172 198 7,100  Level Oakland Center
Sun 10:31:39 PM 37.2847 -121.1872 28° Northeast 180 207 7,100 -146 Level Oakland Center
Sun 10:32:40 PM 37.3328 -121.1567 27° Northeast 186 214 6,800 -393 Descending Oakland Center
Sun 10:33:41 PM 37.3847 -121.1636 354° North 182 209 6,300 -393 Descending Oakland Center
Sun 10:34:42 PM 37.4403 -121.1694 355° North 194 223 6,000 -146 Descending Oakland Center
Sun 10:35:44 PM 37.4914 -121.1761 354° North 188 216 6,000  Level Oakland Center
Sun 10:36:45 PM 37.5406 -121.1819 355° North 181 208 6,000  Level Oakland Center
Sun 10:37:46 PM 37.5906 -121.1883 354° North 180 207 6,000  Level Oakland Center
Sun 10:38:48 PM 37.6422 -121.1953 354° North 180 207 6,000  Level Oakland Center
Sun 10:39:56 PM 37.7000 -121.2000 356° North 183 211 6,000  Level Northern Cal TRACON
Sun 10:40:56 PM 37.7500 -121.2167 345° North 183 211 6,000  Level Northern Cal TRACON
Sun 10:42:02 PM 37.8167 -121.2167 360° North 179 206 6,000  Level Northern Cal TRACON
Sun 10:43:08 PM 37.8667 -121.2167 360° North 171 197 6,000  Level Northern Cal TRACON
Sun 10:44:02 PM 37.9167 -121.2333 345° North 218 251 6,000  Level Northern Cal TRACON
Sun 10:45:02 PM 37.9667 -121.2333 360° North 177 204 6,000  Level Northern Cal TRACON
Sun 10:46:02 PM 38.0167 -121.2333 360° North 183 211 6,000  Level Northern Cal TRACON
Sun 10:47:02 PM 38.0667 -121.2500 345° North 182 209 6,000  Level Northern Cal TRACON
Sun 10:48:08 PM 38.1167 -121.2500 360° North 184 212 6,000  Level Northern Cal TRACON
Sun 10:49:08 PM 38.1667 -121.2667 345° North 181 208 6,000 -100 Level Northern Cal TRACON
Sun 10:50:08 PM 38.2167 -121.2667 360° North 186 214 5,800 -250 Descending Northern Cal TRACON
Sun 10:51:08 PM 38.2833 -121.2667 360° North 191 220 5,500 -300 Descending Northern Cal TRACON
Sun 10:52:08 PM 38.3333 -121.2833 345° North 188 216 5,200 -254 Descending Northern Cal TRACON
Sun 10:53:06 PM 38.3800 -121.2856 358° North 189 217 5,000 -202 Descending Oakland Center
Sun 10:54:07 PM 38.4269 -121.2914 354° North 185 213 4,800 -146 Descending Oakland Center
Sun 10:55:09 PM 38.4747 -121.2972 355° North 178 205 4,700 -195 Descending Oakland Center
Sun 10:56:10 PM 38.5256 -121.3019 356° North 180 207 4,400 -344 Descending Oakland Center
Sun 10:57:11 PM 38.5861 -121.3097 354° North 182 209 4,000 -212 Descending Oakland Center
Sun 10:58:03 PM 38.6333 -121.3167 353° North 172 198 4,000  Level Northern Cal TRACON
Sun 10:59:03 PM 38.6667 -121.3167 360° North 169 194 4,000 -250 Level Northern Cal TRACON
Sun 11:00:03 PM 38.7167 -121.3333 345° North 164 189 3,500 -500 Descending Northern Cal TRACON
Sun 11:01:03 PM 38.7667 -121.3333 360° North 156 180 3,000 -700 Descending Northern Cal TRACON
Sun 11:02:03 PM 38.8000 -121.3333 360° North 132 152 2,100 -789 Descending Northern Cal TRACON
Sun 11:02:57 PM 38.8333 -121.3333 360° North 129 148 1,500 -550 Descending Northern Cal TRACON
Sun 11:04:03 PM 38.8667 -121.3333 360° North 125 144 1,000 -238 Descending Northern Cal TRACON
Sun 11:05:03 PM 38.9000 -121.3333 360° North 119 137 1,000 -100 Level Northern Cal TRACON
Sun 11:06:03 PM 38.9333 -121.3333 360° North 118 136 800 -263 Descending Northern Cal TRACON
Sun 11:06:57 PM 38.9333 -121.3500 270° West 120 138 500 -333 Descending Northern Cal TRACON

Login

Don't have an account? Register now (free) for customized features, flight alerts, and more!